createdAt,value
2019-01-23T00:00:47.022Z,69.50
2019-01-23T00:03:16.649Z,69.50
2019-01-23T00:05:46.445Z,69.50
2019-01-23T00:08:16.164Z,69.50
2019-01-23T00:10:45.901Z,69.50
2019-01-23T00:13:15.692Z,69.50
2019-01-23T00:15:45.349Z,70.30
2019-01-23T00:18:15.058Z,69.60
2019-01-23T00:20:44.764Z,69.60
2019-01-23T00:23:14.363Z,69.50
2019-01-23T00:25:43.985Z,69.60
2019-01-23T00:28:13.788Z,69.70
2019-01-23T00:30:43.388Z,69.80
2019-01-23T00:33:13.182Z,69.90
2019-01-23T00:35:42.806Z,70.00
2019-01-23T00:38:12.406Z,70.10
2019-01-23T00:40:42.013Z,70.00
2019-01-23T00:43:11.835Z,70.00
2019-01-23T00:45:41.461Z,70.00
2019-01-23T00:48:11.057Z,70.10
2019-01-23T00:50:40.687Z,70.20
2019-01-23T00:53:10.446Z,70.20
2019-01-23T00:55:40.105Z,70.30
2019-01-23T00:58:09.710Z,70.50
2019-01-23T01:00:39.605Z,70.60
2019-01-23T01:03:09.204Z,70.70
2019-01-23T01:05:38.806Z,70.90
2019-01-23T01:08:08.545Z,71.00
2019-01-23T01:10:39.206Z,71.00
2019-01-23T01:13:09.038Z,71.20
2019-01-23T01:15:38.717Z,71.20
2019-01-23T01:18:08.317Z,71.20
2019-01-23T01:20:38.192Z,71.10
2019-01-23T01:23:08.493Z,70.90
2019-01-23T01:25:38.190Z,70.80
2019-01-23T01:28:07.834Z,70.60
2019-01-23T01:30:38.405Z,70.60
2019-01-23T01:33:08.008Z,70.40
2019-01-23T01:35:37.778Z,70.30
2019-01-23T01:38:07.382Z,70.30
2019-01-23T01:40:36.976Z,70.10
2019-01-23T01:43:06.660Z,70.00
2019-01-23T01:45:36.252Z,69.80
2019-01-23T01:48:05.906Z,69.70
2019-01-23T01:50:35.534Z,69.60
2019-01-23T01:53:05.133Z,69.50
2019-01-23T01:55:34.921Z,69.40
2019-01-23T01:58:04.525Z,69.30
2019-01-23T02:00:34.171Z,69.30
2019-01-23T02:03:03.904Z,69.20
2019-01-23T02:05:33.564Z,69.10
2019-01-23T02:08:03.290Z,69.10
2019-01-23T02:10:32.989Z,68.90
2019-01-23T02:13:03.287Z,68.90
2019-01-23T02:15:32.918Z,69.00
2019-01-23T02:18:02.714Z,68.80
2019-01-23T02:20:32.362Z,68.80
2019-01-23T02:23:01.962Z,68.70
2019-01-23T02:25:31.694Z,68.70
2019-01-23T02:28:01.305Z,68.70
2019-01-23T02:30:30.901Z,68.70
2019-01-23T02:33:00.715Z,68.80
2019-01-23T02:35:30.549Z,68.70
2019-01-23T02:38:00.146Z,68.70
2019-01-23T02:40:29.872Z,68.70
2019-01-23T02:42:59.514Z,68.70
2019-01-23T02:45:29.120Z,68.70
2019-01-23T02:47:59.018Z,68.70
2019-01-23T02:50:28.708Z,68.70
2019-01-23T02:52:58.318Z,68.70
2019-01-23T02:55:28.009Z,68.70
2019-01-23T02:57:57.717Z,68.60
2019-01-23T03:00:27.413Z,68.60
2019-01-23T03:02:57.794Z,68.60
2019-01-23T03:05:27.424Z,68.60
2019-01-23T03:07:57.211Z,68.50
2019-01-23T03:10:27.001Z,69.30
2019-01-23T03:12:56.733Z,68.50
2019-01-23T03:15:27.137Z,68.60
2019-01-23T03:17:56.806Z,68.70
2019-01-23T03:20:26.430Z,68.70
2019-01-23T03:22:56.071Z,68.80
2019-01-23T03:25:25.670Z,68.90
2019-01-23T03:27:55.377Z,69.00
2019-01-23T03:30:26.367Z,69.10
2019-01-23T03:32:55.998Z,69.20
2019-01-23T03:35:26.335Z,69.30
2019-01-23T03:37:56.036Z,69.30
2019-01-23T03:40:25.649Z,69.50
2019-01-23T03:42:55.462Z,69.60
2019-01-23T03:45:25.066Z,69.60
2019-01-23T03:47:54.673Z,69.60
2019-01-23T03:50:24.320Z,69.60
2019-01-23T03:52:53.934Z,69.60
2019-01-23T03:55:23.817Z,69.70
2019-01-23T03:57:53.492Z,69.80
2019-01-23T04:00:23.188Z,69.80
2019-01-23T04:02:52.809Z,69.80
2019-01-23T04:05:22.513Z,69.80
2019-01-23T04:07:52.121Z,69.60
2019-01-23T04:10:21.708Z,69.50
2019-01-23T04:12:51.473Z,69.60
2019-01-23T04:15:21.171Z,69.60
2019-01-23T04:17:50.909Z,69.60
2019-01-23T04:20:21.629Z,69.50
2019-01-23T04:22:51.225Z,69.50
2019-01-23T04:25:21.017Z,69.40
2019-01-23T04:27:50.741Z,69.50
2019-01-23T04:30:21.881Z,69.60
2019-01-23T04:32:51.482Z,69.60
2019-01-23T04:35:21.132Z,69.50
2019-01-23T04:37:50.862Z,69.50
2019-01-23T04:40:20.474Z,69.60
2019-01-23T04:42:50.117Z,69.60
2019-01-23T04:45:19.703Z,69.60
2019-01-23T04:47:49.340Z,69.80
2019-01-23T04:50:18.950Z,69.80
2019-01-23T04:52:56.158Z,69.80
2019-01-23T04:55:25.970Z,69.70
2019-01-23T04:57:55.641Z,69.60
2019-01-23T05:00:27.708Z,69.60
2019-01-23T05:02:57.418Z,69.70
2019-01-23T05:05:27.057Z,69.80
2019-01-23T05:07:56.744Z,69.90
2019-01-23T05:10:26.399Z,69.90
2019-01-23T05:12:55.998Z,70.00
2019-01-23T05:15:25.646Z,70.00
2019-01-23T05:17:55.448Z,69.80
2019-01-23T05:20:25.294Z,69.70
2019-01-23T05:22:54.899Z,69.80
2019-01-23T05:25:24.530Z,69.90
2019-01-23T05:27:54.169Z,69.90
2019-01-23T05:30:24.713Z,69.80
2019-01-23T05:32:54.349Z,69.90
2019-01-23T05:35:24.054Z,70.10
2019-01-23T05:37:53.965Z,70.00
2019-01-23T05:40:23.682Z,70.20
2019-01-23T05:42:53.423Z,70.30
2019-01-23T05:45:23.777Z,70.40
2019-01-23T05:47:54.201Z,70.40
2019-01-23T05:50:24.008Z,70.40
2019-01-23T05:52:54.787Z,70.40
2019-01-23T05:55:24.386Z,70.40
2019-01-23T05:57:54.961Z,70.50
2019-01-23T06:00:24.830Z,70.50
2019-01-23T06:02:54.574Z,70.50
2019-01-23T06:05:24.176Z,70.50
2019-01-23T06:07:54.590Z,70.50
2019-01-23T06:10:24.292Z,70.50
2019-01-23T06:12:53.954Z,70.40
2019-01-23T06:15:24.036Z,70.40
2019-01-23T06:17:53.682Z,70.40
2019-01-23T06:20:23.310Z,70.30
2019-01-23T06:22:52.956Z,70.30
2019-01-23T06:25:22.911Z,70.20
2019-01-23T06:27:52.558Z,70.20
2019-01-23T06:30:24.694Z,70.20
2019-01-23T06:32:54.628Z,69.90
2019-01-23T06:35:24.853Z,69.80
2019-01-23T06:37:55.470Z,69.60
2019-01-23T06:40:25.122Z,69.50
2019-01-23T06:42:54.804Z,69.60
2019-01-23T06:45:24.491Z,69.50
2019-01-23T06:47:54.274Z,69.60
2019-01-23T06:50:23.914Z,69.80
2019-01-23T06:52:53.789Z,69.70
2019-01-23T06:55:23.443Z,69.90
2019-01-23T06:57:53.085Z,69.90
2019-01-23T07:00:23.505Z,70.00
2019-01-23T07:02:53.535Z,70.00
2019-01-23T07:05:23.169Z,69.90
2019-01-23T07:07:52.972Z,69.90
2019-01-23T07:10:23.845Z,70.00
2019-01-23T07:12:53.494Z,70.00
2019-01-23T07:15:23.143Z,69.50
2019-01-23T07:17:52.867Z,69.50
2019-01-23T07:20:24.044Z,69.50
2019-01-23T07:22:53.690Z,69.40
2019-01-23T07:25:23.406Z,69.20
2019-01-23T07:27:53.201Z,69.10
2019-01-23T07:30:26.457Z,68.90
2019-01-23T07:32:58.740Z,69.00
2019-01-23T07:35:29.096Z,68.90
2019-01-23T07:37:58.842Z,68.90
2019-01-23T07:40:29.183Z,68.70
2019-01-23T07:42:58.827Z,68.30
2019-01-23T07:45:28.640Z,68.10
2019-01-23T07:47:58.457Z,68.10
2019-01-23T07:50:28.130Z,68.20
2019-01-23T07:52:57.836Z,68.20
2019-01-23T07:55:27.639Z,68.10
2019-01-23T07:57:57.301Z,67.90
2019-01-23T08:00:31.494Z,68.00
2019-01-23T08:02:58.917Z,68.20
2019-01-23T08:05:28.716Z,68.20
2019-01-23T08:07:59.281Z,68.30
2019-01-23T08:10:29.103Z,68.30
2019-01-23T08:12:58.742Z,68.20
2019-01-23T08:15:30.674Z,68.30
2019-01-23T08:18:00.397Z,68.40
2019-01-23T08:20:30.504Z,68.50
2019-01-23T08:23:00.154Z,68.40
2019-01-23T08:25:29.794Z,68.30
2019-01-23T08:28:00.689Z,68.40
2019-01-23T08:30:30.357Z,68.40
2019-01-23T08:33:00.754Z,68.30
2019-01-23T08:35:30.398Z,68.40
2019-01-23T08:38:00.295Z,68.40
2019-01-23T08:40:29.925Z,68.40
2019-01-23T08:42:59.637Z,68.40
2019-01-23T08:45:31.138Z,68.50
2019-01-23T08:48:00.978Z,68.50
2019-01-23T08:50:33.997Z,68.70
2019-01-23T08:53:03.692Z,68.70
2019-01-23T08:55:33.409Z,68.80
2019-01-23T08:58:03.181Z,69.00
2019-01-23T09:00:34.222Z,69.10
2019-01-23T09:03:04.278Z,69.20
2019-01-23T09:05:33.941Z,69.20
2019-01-23T09:08:05.226Z,69.30
2019-01-23T09:10:36.774Z,69.20
2019-01-23T09:13:06.427Z,69.10
2019-01-23T09:15:36.073Z,69.00
2019-01-23T09:18:07.099Z,69.10
2019-01-23T09:20:37.411Z,69.10
2019-01-23T09:23:07.166Z,69.10
2019-01-23T09:25:36.870Z,68.90
2019-01-23T09:28:06.597Z,69.00
2019-01-23T09:30:42.570Z,69.10
2019-01-23T09:33:21.645Z,69.20
2019-01-23T09:36:03.624Z,69.30
2019-01-23T09:38:45.658Z,69.10
2019-01-23T09:41:18.640Z,68.70
2019-01-23T09:43:54.325Z,68.40
2019-01-23T09:46:36.126Z,68.30
2019-01-23T09:49:11.635Z,68.50
2019-01-23T09:52:15.224Z,68.50
2019-01-23T09:54:44.865Z,68.60
2019-01-23T09:57:14.550Z,68.80
2019-01-23T09:59:44.226Z,69.00
2019-01-23T10:02:13.938Z,68.80
2019-01-23T10:04:43.845Z,68.60
2019-01-23T10:07:13.503Z,69.10
2019-01-23T10:09:43.262Z,68.30
2019-01-23T10:12:12.896Z,68.20
2019-01-23T10:14:42.578Z,68.30
2019-01-23T10:17:12.385Z,68.30
2019-01-23T10:19:42.021Z,68.10
2019-01-23T10:22:11.733Z,68.00
2019-01-23T10:24:41.535Z,67.80
2019-01-23T10:27:12.221Z,67.40
2019-01-23T10:29:41.894Z,67.40
2019-01-23T10:32:11.538Z,67.40
2019-01-23T10:34:41.181Z,66.90
2019-01-23T10:37:10.821Z,66.70
2019-01-23T10:39:40.532Z,66.80
2019-01-23T10:42:10.186Z,66.70
2019-01-23T10:44:40.104Z,66.60
2019-01-23T10:47:09.801Z,66.40
2019-01-23T10:49:39.431Z,66.30
2019-01-23T10:52:09.138Z,66.40
2019-01-23T10:54:39.061Z,66.50
2019-01-23T10:57:08.716Z,66.50
2019-01-23T10:59:38.512Z,66.60
2019-01-23T11:02:08.154Z,66.50
2019-01-23T11:04:37.778Z,66.50
2019-01-23T11:07:08.018Z,66.20
2019-01-23T11:09:37.801Z,66.00
2019-01-23T11:12:07.705Z,65.80
2019-01-23T11:14:38.157Z,65.70
2019-01-23T11:17:07.999Z,65.60
2019-01-23T11:19:37.786Z,65.60
2019-01-23T11:22:07.509Z,65.60
2019-01-23T11:24:37.149Z,65.20
2019-01-23T11:27:06.978Z,65.10
2019-01-23T11:29:37.370Z,64.90
2019-01-23T11:32:07.038Z,64.80
2019-01-23T11:34:37.638Z,64.30
2019-01-23T11:37:07.273Z,64.30
2019-01-23T11:39:36.982Z,65.00
2019-01-23T11:42:06.665Z,64.20
2019-01-23T11:44:36.318Z,64.20
2019-01-23T11:47:06.050Z,63.90
2019-01-23T11:49:35.812Z,63.90
2019-01-23T11:52:05.519Z,63.80
2019-01-23T11:54:35.189Z,63.40
2019-01-23T11:57:04.845Z,63.50
2019-01-23T11:59:34.573Z,63.20
2019-01-23T12:02:04.322Z,63.00
2019-01-23T12:04:34.150Z,63.10
2019-01-23T12:07:03.813Z,63.20
2019-01-23T12:09:33.469Z,63.10
2019-01-23T12:12:03.131Z,63.10
2019-01-23T12:14:32.886Z,63.10
2019-01-23T12:17:02.549Z,63.00
2019-01-23T12:19:32.585Z,62.90
2019-01-23T12:22:02.217Z,62.40
2019-01-23T12:24:31.881Z,62.40
2019-01-23T12:27:01.631Z,62.20
2019-01-23T12:29:31.247Z,62.00
2019-01-23T12:32:00.949Z,62.20
2019-01-23T12:34:31.585Z,62.20
2019-01-23T12:37:01.314Z,62.10
2019-01-23T12:39:30.964Z,61.90
2019-01-23T12:42:00.660Z,61.90
2019-01-23T12:44:30.301Z,61.90
2019-01-23T12:46:59.982Z,61.70
2019-01-23T12:49:29.882Z,61.10
2019-01-23T12:51:59.513Z,60.80
2019-01-23T12:54:29.230Z,60.50
2019-01-23T12:56:58.849Z,60.20
2019-01-23T12:59:28.582Z,60.10
2019-01-23T13:01:58.518Z,59.90
2019-01-23T13:04:28.172Z,59.90
2019-01-23T13:06:57.892Z,60.00
2019-01-23T13:09:27.610Z,60.00
2019-01-23T13:11:57.258Z,60.70
2019-01-23T13:14:26.973Z,60.80
2019-01-23T13:16:57.149Z,60.30
2019-01-23T13:19:26.793Z,60.30
2019-01-23T13:21:56.606Z,60.10
2019-01-23T13:24:26.256Z,60.10
2019-01-23T13:26:55.937Z,60.20
2019-01-23T13:29:25.645Z,60.20
2019-01-23T13:31:55.354Z,60.10
2019-01-23T13:34:25.110Z,60.20
2019-01-23T13:36:54.741Z,60.10
2019-01-23T13:39:24.385Z,60.20
2019-01-23T13:41:54.041Z,60.40
2019-01-23T13:44:23.773Z,60.30
2019-01-23T13:46:53.486Z,60.00
2019-01-23T13:49:23.109Z,59.90
2019-01-23T13:51:52.854Z,60.00
2019-01-23T13:54:22.574Z,59.90
2019-01-23T13:56:52.361Z,59.90
2019-01-23T13:59:22.079Z,60.00
2019-01-23T14:01:56.458Z,60.20
2019-01-23T14:04:24.247Z,60.40
2019-01-23T14:06:54.066Z,60.40
2019-01-23T14:09:23.885Z,60.40
2019-01-23T14:11:53.594Z,60.50
2019-01-23T14:14:23.339Z,60.50
2019-01-23T14:16:53.186Z,60.50
2019-01-23T14:19:22.832Z,60.50
2019-01-23T14:21:52.542Z,60.40
2019-01-23T14:24:22.245Z,60.50
2019-01-23T14:26:51.908Z,60.70
2019-01-23T14:29:21.509Z,60.60
2019-01-23T14:31:51.419Z,60.70
2019-01-23T14:34:21.127Z,60.80
2019-01-23T14:36:50.842Z,60.70
2019-01-23T14:39:20.642Z,60.60
2019-01-23T14:41:50.307Z,60.70
2019-01-23T14:44:20.058Z,60.70
2019-01-23T14:46:49.690Z,60.90
2019-01-23T14:49:19.366Z,60.80
2019-01-23T14:51:49.050Z,60.90
2019-01-23T14:54:18.696Z,60.90
2019-01-23T14:56:48.481Z,61.80
2019-01-23T14:59:18.133Z,61.70
2019-01-23T15:01:47.912Z,61.30
2019-01-23T15:04:17.789Z,61.30
2019-01-23T15:06:47.520Z,61.20
2019-01-23T15:09:17.231Z,60.90
2019-01-23T15:11:46.883Z,60.90
2019-01-23T15:14:16.618Z,60.90
2019-01-23T15:16:46.269Z,60.80
2019-01-23T15:19:15.971Z,60.80
2019-01-23T15:21:45.618Z,60.70
2019-01-23T15:24:15.280Z,60.70
2019-01-23T15:26:44.985Z,60.80
2019-01-23T15:29:14.657Z,60.70
2019-01-23T15:31:44.309Z,60.70
2019-01-23T15:34:14.050Z,60.80
2019-01-23T15:36:44.393Z,60.80
2019-01-23T15:39:14.090Z,60.80
2019-01-23T15:41:43.863Z,60.80
2019-01-23T15:44:13.680Z,60.90
2019-01-23T15:46:43.500Z,61.10
2019-01-23T15:49:13.126Z,61.00
2019-01-23T15:51:42.851Z,61.10
2019-01-23T15:54:12.581Z,61.00
2019-01-23T15:56:42.296Z,61.00
2019-01-23T15:59:12.002Z,60.90
2019-01-23T16:01:41.658Z,61.10
2019-01-23T16:04:11.304Z,61.10
2019-01-23T16:06:41.999Z,60.80
2019-01-23T16:09:11.634Z,60.90
2019-01-23T16:11:42.238Z,60.80
2019-01-23T16:14:12.002Z,60.70
2019-01-23T16:16:41.633Z,60.70
2019-01-23T16:19:11.307Z,60.70
2019-01-23T16:21:45.585Z,60.60
2019-01-23T16:24:12.344Z,60.60
2019-01-23T16:26:42.113Z,60.70
2019-01-23T16:29:11.936Z,60.70
2019-01-23T16:31:41.633Z,60.70
2019-01-23T16:34:11.269Z,60.70
2019-01-23T16:36:41.870Z,60.70
2019-01-23T16:39:11.548Z,60.70
2019-01-23T16:41:41.239Z,60.70
2019-01-23T16:44:11.076Z,60.70
2019-01-23T16:46:41.407Z,60.80
2019-01-23T16:49:11.229Z,60.70
2019-01-23T16:51:40.878Z,60.60
2019-01-23T16:54:11.418Z,60.60
2019-01-23T16:56:41.061Z,60.60
2019-01-23T16:59:11.647Z,60.50
2019-01-23T17:01:41.474Z,60.40
2019-01-23T17:04:11.082Z,60.40
2019-01-23T17:06:40.705Z,60.40
2019-01-23T17:09:10.581Z,60.30
2019-01-23T17:11:40.181Z,60.40
2019-01-23T17:14:09.887Z,60.60
2019-01-23T17:16:40.398Z,60.70
2019-01-23T17:19:11.246Z,60.60
2019-01-23T17:21:40.840Z,60.60
2019-01-23T17:24:11.404Z,60.60
2019-01-23T17:26:41.234Z,60.50
2019-01-23T17:29:11.685Z,60.50
2019-01-23T17:31:42.297Z,60.70
2019-01-23T17:34:12.027Z,60.60
2019-01-23T17:36:41.729Z,60.50
2019-01-23T17:39:11.418Z,60.50
2019-01-23T17:41:41.053Z,60.40
2019-01-23T17:44:11.788Z,60.40
2019-01-23T17:46:41.607Z,60.40
2019-01-23T17:49:11.270Z,60.30
2019-01-23T17:51:40.922Z,60.30
2019-01-23T17:54:10.551Z,60.30
2019-01-23T17:56:40.188Z,60.10
2019-01-23T17:59:09.814Z,60.90
2019-01-23T18:01:39.431Z,60.10
2019-01-23T18:04:09.070Z,60.20
2019-01-23T18:06:38.709Z,60.20
2019-01-23T18:09:08.576Z,60.30
2019-01-23T18:11:38.601Z,60.30
2019-01-23T18:14:08.266Z,60.30
2019-01-23T18:16:38.003Z,60.30
2019-01-23T18:19:07.717Z,60.40
2019-01-23T18:21:37.385Z,60.60
2019-01-23T18:24:06.987Z,60.70
2019-01-23T18:26:37.704Z,60.80
2019-01-23T18:29:07.488Z,60.80
2019-01-23T18:31:37.185Z,61.00
2019-01-23T18:34:19.060Z,61.10
2019-01-23T18:37:01.026Z,61.20
2019-01-23T18:40:00.882Z,61.30
2019-01-23T18:43:05.942Z,61.40
2019-01-23T18:45:38.928Z,61.50
2019-01-23T18:48:28.338Z,61.70
2019-01-23T18:51:01.325Z,61.80
2019-01-23T18:53:31.048Z,62.10
2019-01-23T18:56:00.650Z,62.30
2019-01-23T18:58:30.257Z,62.60
2019-01-23T19:00:59.933Z,62.70
2019-01-23T19:03:29.651Z,62.70
2019-01-23T19:05:59.306Z,62.80
2019-01-23T19:08:28.983Z,63.10
2019-01-23T19:10:58.606Z,63.20
2019-01-23T19:13:28.209Z,63.10
2019-01-23T19:15:59.058Z,63.40
2019-01-23T19:18:28.777Z,63.70
2019-01-23T19:20:58.422Z,63.90
2019-01-23T19:23:28.064Z,64.40
2019-01-23T19:25:58.666Z,64.60
2019-01-23T19:28:28.257Z,64.50
2019-01-23T19:30:57.957Z,64.50
2019-01-23T19:33:27.862Z,64.90
2019-01-23T19:35:57.858Z,64.70
2019-01-23T19:38:27.667Z,65.00
2019-01-23T19:40:57.389Z,65.20
2019-01-23T19:43:27.114Z,65.20
2019-01-23T19:45:56.829Z,65.10
2019-01-23T19:48:27.593Z,65.10
2019-01-23T19:50:57.297Z,65.10
2019-01-23T19:53:26.996Z,65.50
2019-01-23T19:55:56.706Z,65.80
2019-01-23T19:58:26.315Z,65.80
2019-01-23T20:00:56.043Z,65.80
2019-01-23T20:03:25.771Z,65.80
2019-01-23T20:05:56.389Z,65.80
2019-01-23T20:08:26.029Z,65.90
2019-01-23T20:10:55.762Z,65.90
2019-01-23T20:13:26.177Z,66.00
2019-01-23T20:15:55.959Z,66.30
2019-01-23T20:18:25.555Z,65.90
2019-01-23T20:20:55.315Z,65.80
2019-01-23T20:23:25.013Z,65.90
2019-01-23T20:25:54.666Z,65.90
2019-01-23T20:28:24.256Z,65.80
2019-01-23T20:30:54.247Z,65.80
2019-01-23T20:33:28.002Z,65.90
2019-01-23T20:35:55.462Z,65.80
2019-01-23T20:38:25.197Z,65.50
2019-01-23T20:40:54.868Z,65.30
2019-01-23T20:43:24.473Z,65.40
2019-01-23T20:45:54.185Z,65.60
2019-01-23T20:48:23.777Z,65.20
2019-01-23T20:50:53.416Z,65.10
2019-01-23T20:53:23.201Z,65.10
2019-01-23T20:55:52.806Z,64.90
2019-01-23T20:58:22.474Z,65.10
2019-01-23T21:00:52.144Z,65.30
2019-01-23T21:03:22.462Z,65.60
2019-01-23T21:05:52.227Z,65.60
2019-01-23T21:08:21.898Z,65.50
2019-01-23T21:10:51.542Z,65.50
2019-01-23T21:13:21.722Z,65.30
2019-01-23T21:15:51.436Z,65.20
2019-01-23T21:18:21.050Z,65.10
2019-01-23T21:20:50.642Z,65.20
2019-01-23T21:23:21.126Z,65.20
2019-01-23T21:25:50.769Z,65.20
2019-01-23T21:28:21.453Z,65.20
2019-01-23T21:30:51.270Z,65.10
2019-01-23T21:33:21.002Z,65.00
2019-01-23T21:35:50.593Z,64.90
2019-01-23T21:38:20.401Z,64.70
2019-01-23T21:40:50.011Z,64.50
2019-01-23T21:43:19.670Z,64.10
2019-01-23T21:45:49.367Z,64.10
2019-01-23T21:48:19.388Z,63.80
2019-01-23T21:50:49.213Z,63.70
2019-01-23T21:53:18.893Z,63.40
2019-01-23T21:55:48.498Z,63.40
2019-01-23T21:58:18.206Z,63.30
2019-01-23T22:00:47.801Z,63.30
2019-01-23T22:03:17.590Z,63.20
2019-01-23T22:05:47.362Z,63.10
2019-01-23T22:08:17.008Z,63.30
2019-01-23T22:10:46.765Z,63.00
2019-01-23T22:13:16.414Z,62.70
2019-01-23T22:15:46.118Z,62.90
2019-01-23T22:18:15.930Z,62.90
2019-01-23T22:20:45.652Z,62.80
2019-01-23T22:23:16.280Z,62.70
2019-01-23T22:25:45.954Z,62.50
2019-01-23T22:28:15.634Z,62.60
2019-01-23T22:30:45.438Z,62.80
2019-01-23T22:33:15.137Z,62.70
2019-01-23T22:35:44.848Z,62.70
2019-01-23T22:38:14.488Z,62.60
2019-01-23T22:40:44.084Z,62.60
2019-01-23T22:43:15.082Z,62.50
2019-01-23T22:45:44.961Z,62.50
2019-01-23T22:48:14.632Z,62.40
2019-01-23T22:50:45.103Z,62.30
2019-01-23T22:53:14.742Z,62.20
2019-01-23T22:55:44.394Z,61.90
2019-01-23T22:58:14.158Z,62.00
2019-01-23T23:00:59.665Z,62.20
2019-01-23T23:03:30.971Z,62.30
2019-01-23T23:06:00.621Z,62.50
2019-01-23T23:08:30.313Z,62.50
2019-01-23T23:11:00.134Z,62.70
2019-01-23T23:13:29.777Z,62.90
2019-01-23T23:15:59.369Z,63.00
2019-01-23T23:18:28.997Z,63.00
2019-01-23T23:20:58.650Z,63.20
2019-01-23T23:23:28.348Z,63.40
2019-01-23T23:25:58.237Z,63.30
2019-01-23T23:28:28.570Z,63.20
2019-01-23T23:30:58.256Z,63.20
2019-01-23T23:33:27.962Z,63.20
2019-01-23T23:35:57.756Z,63.30
2019-01-23T23:38:27.481Z,63.20
2019-01-23T23:40:57.125Z,63.20
2019-01-23T23:43:26.762Z,63.30
2019-01-23T23:45:56.694Z,63.30
2019-01-23T23:48:26.428Z,63.20
2019-01-23T23:50:56.042Z,63.10
2019-01-23T23:53:25.954Z,63.10
2019-01-23T23:55:55.713Z,63.20
2019-01-23T23:58:25.473Z,63.10
